sensor_id;sensor_type;location;lat;lon;timestamp;temperature;humidity
20337;DHT22;10326;53.660;10.200;2023-08-20T00:01:57;23.20;91.60
20337;DHT22;10326;53.660;10.200;2023-08-20T00:04:36;23.20;91.70
20337;DHT22;10326;53.660;10.200;2023-08-20T00:07:05;23.10;91.80
20337;DHT22;10326;53.660;10.200;2023-08-20T00:16:16;23.10;91.70
20337;DHT22;10326;53.660;10.200;2023-08-20T00:18:55;23.10;91.80
20337;DHT22;10326;53.660;10.200;2023-08-20T00:21:38;23.00;92.10
20337;DHT22;10326;53.660;10.200;2023-08-20T00:24:09;23.00;91.80
20337;DHT22;10326;53.660;10.200;2023-08-20T00:30:52;23.00;91.90
20337;DHT22;10326;53.660;10.200;2023-08-20T00:43:25;22.90;91.70
20337;DHT22;10326;53.660;10.200;2023-08-20T00:49:09;22.90;91.80
20337;DHT22;10326;53.660;10.200;2023-08-20T00:55:09;22.80;91.70
20337;DHT22;10326;53.660;10.200;2023-08-20T00:57:42;22.80;91.60
20337;DHT22;10326;53.660;10.200;2023-08-20T01:04:45;22.70;91.90
20337;DHT22;10326;53.660;10.200;2023-08-20T01:07:43;22.70;91.50
20337;DHT22;10326;53.660;10.200;2023-08-20T01:15:19;22.60;91.60
20337;DHT22;10326;53.660;10.200;2023-08-20T01:18:01;22.60;91.50
20337;DHT22;10326;53.660;10.200;2023-08-20T01:34:06;22.30;91.30
20337;DHT22;10326;53.660;10.200;2023-08-20T01:40:35;22.20;91.40
20337;DHT22;10326;53.660;10.200;2023-08-20T01:43:02;22.10;91.30
20337;DHT22;10326;53.660;10.200;2023-08-20T01:45:30;22.10;91.30
20337;DHT22;10326;53.660;10.200;2023-08-20T01:48:02;22.00;91.20
20337;DHT22;10326;53.660;10.200;2023-08-20T01:50:30;22.00;91.20
20337;DHT22;10326;53.660;10.200;2023-08-20T01:53:03;21.90;91.20
20337;DHT22;10326;53.660;10.200;2023-08-20T01:55:31;21.90;91.30
20337;DHT22;10326;53.660;10.200;2023-08-20T01:58:00;21.90;91.30
20337;DHT22;10326;53.660;10.200;2023-08-20T02:00:28;21.80;91.20
20337;DHT22;10326;53.660;10.200;2023-08-20T02:02:57;21.80;91.20
20337;DHT22;10326;53.660;10.200;2023-08-20T02:10:29;21.70;91.20
20337;DHT22;10326;53.660;10.200;2023-08-20T02:13:00;21.70;91.20
20337;DHT22;10326;53.660;10.200;2023-08-20T02:15:28;21.60;91.10
20337;DHT22;10326;53.660;10.200;2023-08-20T02:18:25;21.60;91.10
20337;DHT22;10326;53.660;10.200;2023-08-20T02:21:45;21.50;91.20
20337;DHT22;10326;53.660;10.200;2023-08-20T02:24:13;21.50;91.20
20337;DHT22;10326;53.660;10.200;2023-08-20T02:26:40;21.40;91.10
20337;DHT22;10326;53.660;10.200;2023-08-20T02:29:09;21.40;91.10
20337;DHT22;10326;53.660;10.200;2023-08-20T02:31:36;21.40;91.10
20337;DHT22;10326;53.660;10.200;2023-08-20T02:34:04;21.30;91.10
20337;DHT22;10326;53.660;10.200;2023-08-20T02:37:11;21.30;91.10
20337;DHT22;10326;53.660;10.200;2023-08-20T02:39:50;21.30;91.20
20337;DHT22;10326;53.660;10.200;2023-08-20T02:42:33;21.20;91.20
20337;DHT22;10326;53.660;10.200;2023-08-20T02:45:02;21.20;91.30
20337;DHT22;10326;53.660;10.200;2023-08-20T02:47:30;21.20;91.20
20337;DHT22;10326;53.660;10.200;2023-08-20T02:49:57;21.20;91.30
20337;DHT22;10326;53.660;10.200;2023-08-20T02:52:24;21.20;91.30
20337;DHT22;10326;53.660;10.200;2023-08-20T02:54:52;21.10;91.30
20337;DHT22;10326;53.660;10.200;2023-08-20T02:57:19;21.10;91.40
20337;DHT22;10326;53.660;10.200;2023-08-20T02:59:50;21.10;91.50
20337;DHT22;10326;53.660;10.200;2023-08-20T03:02:31;21.10;91.60
20337;DHT22;10326;53.660;10.200;2023-08-20T03:05:13;21.10;91.60
20337;DHT22;10326;53.660;10.200;2023-08-20T03:07:45;21.10;91.70
20337;DHT22;10326;53.660;10.200;2023-08-20T03:10:12;21.10;91.60
20337;DHT22;10326;53.660;10.200;2023-08-20T03:12:41;21.10;91.70
20337;DHT22;10326;53.660;10.200;2023-08-20T03:15:09;21.00;91.60
20337;DHT22;10326;53.660;10.200;2023-08-20T03:17:38;21.00;91.50
20337;DHT22;10326;53.660;10.200;2023-08-20T03:20:06;21.00;91.50
20337;DHT22;10326;53.660;10.200;2023-08-20T03:22:36;21.00;91.50
20337;DHT22;10326;53.660;10.200;2023-08-20T03:25:05;21.00;91.50
20337;DHT22;10326;53.660;10.200;2023-08-20T03:27:34;21.00;91.50
20337;DHT22;10326;53.660;10.200;2023-08-20T03:30:03;21.00;91.60
20337;DHT22;10326;53.660;10.200;2023-08-20T03:32:32;20.90;91.50
20337;DHT22;10326;53.660;10.200;2023-08-20T03:35:01;20.90;91.60
20337;DHT22;10326;53.660;10.200;2023-08-20T03:37:28;20.90;91.80
20337;DHT22;10326;53.660;10.200;2023-08-20T03:39:57;20.90;91.50
20337;DHT22;10326;53.660;10.200;2023-08-20T03:42:25;20.90;91.50
20337;DHT22;10326;53.660;10.200;2023-08-20T03:44:56;20.90;91.60
20337;DHT22;10326;53.660;10.200;2023-08-20T03:47:23;20.80;91.60
20337;DHT22;10326;53.660;10.200;2023-08-20T03:49:50;20.80;91.60
20337;DHT22;10326;53.660;10.200;2023-08-20T03:52:19;20.80;91.70
20337;DHT22;10326;53.660;10.200;2023-08-20T03:54:47;20.80;91.70
20337;DHT22;10326;53.660;10.200;2023-08-20T03:57:15;20.80;91.70
20337;DHT22;10326;53.660;10.200;2023-08-20T03:59:44;20.70;91.70
